Time;durP1;ratioP1;P1;durP2;ratioP2;P2;SDS_P1;SDS_P2;PMS_P1;PMS_P2;Temp;Humidity;BMP_temperature;BMP_pressure;BME280_temperature;BME280_humidity;BME280_pressure;Samples;Min_cycle;Max_cycle;Signal;HPM_P1;HPM_P2
2024/02/04 00:03:52;;;;;;;1999.90;999.90;;;;;;;10.66;100.00;102233.13;10499818;28;20061;-67
2024/02/04 00:08:55;;;;;;;1999.90;999.90;;;;;;;10.45;100.00;102260.91;10499628;28;20510;-67
2024/02/04 00:13:57;;;;;;;1999.90;999.90;;;;;;;10.48;100.00;102263.44;10482430;28;20045;-67
2024/02/04 00:19:00;;;;;;;1999.90;999.90;;;;;;;10.53;100.00;102246.66;10499895;28;20076;-67
2024/02/04 00:24:02;;;;;;;1999.90;999.90;;;;;;;10.46;100.00;102241.69;10499367;28;20060;-67
2024/02/04 00:29:05;;;;;;;1999.90;999.90;;;;;;;10.50;100.00;102257.22;10498858;28;20388;-67
2024/02/04 00:34:07;;;;;;;1999.90;999.90;;;;;;;10.63;100.00;102249.81;10499571;28;20056;-67
2024/02/04 00:39:11;;;;;;;1999.90;999.90;;;;;;;10.59;100.00;102251.69;10499313;28;20057;-67
2024/02/04 00:44:13;;;;;;;1999.90;999.90;;;;;;;10.58;100.00;102257.81;10499249;28;20048;-67
2024/02/04 00:49:15;;;;;;;1999.90;999.90;;;;;;;10.63;100.00;102262.06;10498965;28;20127;-67
2024/02/04 00:54:18;;;;;;;1999.90;999.90;;;;;;;10.68;100.00;102253.13;10481158;28;20045;-67
2024/02/04 00:59:21;;;;;;;1999.90;999.90;;;;;;;10.67;100.00;102251.41;10498171;28;20080;-67
2024/02/04 01:04:23;;;;;;;1999.90;999.90;;;;;;;10.53;100.00;102259.75;10498173;28;20056;-67
2024/02/04 01:09:25;;;;;;;1999.90;999.90;;;;;;;10.54;100.00;102247.50;10498498;28;20072;-67
2024/02/04 01:14:28;;;;;;;1999.90;999.90;;;;;;;10.69;100.00;102251.34;10498447;28;20059;-67
2024/02/04 01:19:30;;;;;;;1999.90;999.90;;;;;;;10.43;100.00;102249.63;10498332;28;20049;-67
2024/02/04 01:24:33;;;;;;;1999.90;999.90;;;;;;;10.21;100.00;102245.94;10497703;28;20064;-67
2024/02/04 01:29:35;;;;;;;1999.90;999.90;;;;;;;10.24;100.00;102252.84;10497419;28;20053;-67
2024/02/04 01:34:37;;;;;;;1999.90;999.90;;;;;;;10.29;100.00;102253.53;10498021;28;20048;-67
2024/02/04 01:39:40;;;;;;;1999.90;999.90;;;;;;;10.20;100.00;102254.69;10530200;22;20567;-68
2024/02/04 01:44:43;;;;;;;1999.90;999.90;;;;;;;10.30;100.00;102264.84;10539735;28;20044;-68
2024/02/04 01:49:45;;;;;;;1999.90;999.90;;;;;;;10.16;100.00;102255.69;10538896;28;20044;-68
2024/02/04 01:54:48;;;;;;;1999.90;999.90;;;;;;;10.14;100.00;102257.50;10539517;28;20048;-68
2024/02/04 01:59:52;;;;;;;1999.90;999.90;;;;;;;10.33;100.00;102264.78;10520859;28;20482;-68
2024/02/04 02:04:55;;;;;;;1999.90;999.90;;;;;;;10.32;100.00;102243.00;10538691;28;20079;-69
2024/02/04 02:09:57;;;;;;;1999.90;999.90;;;;;;;10.35;100.00;102237.63;10521247;28;20130;-68
2024/02/04 02:15:24;;;;;;;1999.90;999.90;;;;;;;10.56;100.00;102248.31;10539139;28;20079;-67
2024/02/04 02:20:29;;;;;;;1999.90;999.90;;;;;;;10.44;100.00;102251.34;10519959;28;20047;-66
2024/02/04 02:25:33;;;;;;;1999.90;999.90;;;;;;;10.34;100.00;102254.28;10546466;28;20072;-66
2024/02/04 02:30:36;;;;;;;1999.90;999.90;;;;;;;10.44;100.00;102246.97;10527585;28;20522;-67
2024/02/04 02:35:38;;;;;;;1999.90;999.90;;;;;;;10.38;100.00;102241.94;10546011;28;20052;-67
2024/02/04 02:40:46;;;;;;;1999.90;999.90;;;;;;;10.16;100.00;102234.75;10544950;28;20048;-68
2024/02/04 02:45:48;;;;;;;1999.90;999.90;;;;;;;10.26;100.00;102224.84;10510575;28;20387;-68
2024/02/04 02:50:51;;;;;;;1999.90;999.90;;;;;;;10.31;100.00;102225.53;10527415;28;20097;-67
2024/02/04 02:55:53;;;;;;;1999.90;999.90;;;;;;;10.38;100.00;102224.44;10545176;28;20072;-68
2024/02/04 03:00:55;;;;;;;1999.90;999.90;;;;;;;10.32;100.00;102226.41;10545015;28;20044;-68
2024/02/04 03:05:58;;;;;;;1999.90;999.90;;;;;;;10.14;100.00;102215.63;10544833;28;20051;-68
2024/02/04 03:11:00;;;;;;;1999.90;999.90;;;;;;;10.15;100.00;102216.47;10543917;28;20071;-67
2024/02/04 03:16:03;;;;;;;1999.90;999.90;;;;;;;10.06;100.00;102215.03;10544392;28;20051;-66
2024/02/04 03:21:11;;;;;;;1999.90;999.90;;;;;;;10.19;100.00;102223.34;10544180;28;20104;-68
2024/02/04 03:26:19;;;;;;;1999.90;999.90;;;;;;;10.06;100.00;102215.03;10526134;28;20048;-67
2024/02/04 03:31:23;;;;;;;1999.90;999.90;;;;;;;10.05;100.00;102236.84;10526311;28;20039;-68
2024/02/04 03:36:25;;;;;;;1999.90;999.90;;;;;;;10.03;100.00;102229.06;10543654;28;20071;-68
2024/02/04 03:41:28;;;;;;;1999.90;999.90;;;;;;;10.07;100.00;102228.97;10542885;28;20109;-68
2024/02/04 03:46:30;;;;;;;1999.90;999.90;;;;;;;10.01;100.00;102232.63;10508673;28;20044;-68
2024/02/04 03:51:32;;;;;;;1999.90;999.90;;;;;;;9.93;100.00;102232.88;10524962;28;20040;-68
2024/02/04 03:56:35;;;;;;;1999.90;999.90;;;;;;;9.99;100.00;102235.28;10542750;28;20090;-68
2024/02/04 04:01:38;;;;;;;1999.90;999.90;;;;;;;9.92;100.00;102239.03;10541993;28;20502;-68
2024/02/04 04:06:41;;;;;;;1999.90;999.90;;;;;;;9.82;100.00;102241.06;10542409;28;20113;-68
2024/02/04 04:11:44;;;;;;;1999.90;999.90;;;;;;;9.93;100.00;102252.94;10542130;28;20044;-68
2024/02/04 04:16:46;;;;;;;1999.90;999.90;;;;;;;9.91;100.00;102249.53;10541356;28;20479;-68
2024/02/04 04:21:48;;;;;;;1999.90;999.90;;;;;;;10.02;100.00;102239.59;10523215;28;20402;-68
2024/02/04 04:26:51;;;;;;;1999.90;999.90;;;;;;;10.01;100.00;102222.16;10541663;28;20062;-68
2024/02/04 04:31:53;;;;;;;1999.90;999.90;;;;;;;9.94;100.00;102202.34;10523345;28;20050;-68
2024/02/04 04:36:55;;;;;;;1999.90;999.90;;;;;;;9.89;100.00;102202.50;10541301;28;20054;-68
2024/02/04 04:41:58;;;;;;;1999.90;999.90;;;;;;;9.97;100.00;102195.25;10540103;28;20055;-68
2024/02/04 04:47:00;;;;;;;1999.90;999.90;;;;;;;10.00;100.00;102191.66;10540344;28;20398;-68
2024/02/04 04:52:02;;;;;;;1999.90;999.90;;;;;;;9.90;100.00;102187.63;10540731;28;20044;-68
2024/02/04 04:57:05;;;;;;;1999.90;999.90;;;;;;;9.89;100.00;102186.78;10540091;28;20056;-68
2024/02/04 05:02:07;;;;;;;1999.90;999.90;;;;;;;10.00;100.00;102183.81;10522692;28;20052;-68
2024/02/04 05:07:10;;;;;;;1999.90;999.90;;;;;;;10.09;100.00;102162.59;10540505;28;20126;-68
2024/02/04 05:12:12;;;;;;;1999.90;999.90;;;;;;;10.11;100.00;102163.38;10505801;28;20072;-68
2024/02/04 05:17:15;;;;;;;1999.90;999.90;;;;;;;9.91;100.00;102152.75;10539594;28;20415;-68
2024/02/04 05:22:17;;;;;;;1999.90;999.90;;;;;;;9.97;100.00;102161.25;10540144;28;20047;-68
2024/02/04 05:27:20;;;;;;;1999.90;999.90;;;;;;;10.01;100.00;102152.38;10540104;28;20052;-68
2024/02/04 05:32:22;;;;;;;1999.90;999.90;;;;;;;9.95;100.00;102162.19;10522027;28;20079;-68
2024/02/04 05:37:24;;;;;;;1999.90;999.90;;;;;;;9.99;100.00;102161.19;10539892;28;20058;-68
2024/02/04 05:42:27;;;;;;;1999.90;999.90;;;;;;;10.14;100.00;102150.22;10538855;28;20521;-68
2024/02/04 05:47:29;;;;;;;1999.90;999.90;;;;;;;10.03;100.00;102170.63;10521165;28;20487;-68
2024/02/04 05:52:32;;;;;;;1999.90;999.90;;;;;;;10.10;100.00;102184.38;10542478;28;20402;-68
2024/02/04 05:57:34;;;;;;;1999.90;999.90;;;;;;;10.08;100.00;102160.03;10547585;28;20048;-68
2024/02/04 06:02:37;;;;;;;1999.90;999.90;;;;;;;10.06;100.00;102146.16;10546689;28;20044;-68
2024/02/04 06:07:40;;;;;;;1999.90;999.90;;;;;;;10.06;100.00;102151.38;10529308;28;20101;-68
2024/02/04 06:12:45;;;;;;;1999.90;999.90;;;;;;;10.02;100.00;102132.31;10546915;28;20044;-68
2024/02/04 06:17:47;;;;;;;1999.90;999.90;;;;;;;10.05;100.00;102137.41;10546821;28;20048;-68
2024/02/04 06:22:50;;;;;;;1999.90;999.90;;;;;;;10.08;100.00;102141.72;10545979;28;20507;-68
2024/02/04 06:27:52;;;;;;;1999.90;999.90;;;;;;;9.86;100.00;102122.34;10545755;28;20398;-68
2024/02/04 06:32:56;;;;;;;1999.90;999.90;;;;;;;10.03;100.00;102123.53;10545482;28;20043;-68
2024/02/04 06:37:59;;;;;;;1999.90;999.90;;;;;;;9.95;100.00;102126.44;10545971;28;20113;-68
2024/02/04 06:43:03;;;;;;;1999.90;999.90;;;;;;;9.93;100.00;102125.59;10545013;28;20143;-68
2024/02/04 06:48:07;;;;;;;1999.90;999.90;;;;;;;9.84;100.00;102112.84;10544901;28;20056;-68
2024/02/04 06:53:09;;;;;;;1999.90;999.90;;;;;;;9.90;100.00;102130.97;10545483;28;20055;-68
2024/02/04 06:58:11;;;;;;;1999.90;999.90;;;;;;;9.94;100.00;102123.88;10545167;28;20051;-68
2024/02/04 07:03:14;;;;;;;1999.90;999.90;;;;;;;10.11;100.00;102121.53;10544594;28;20052;-68
2024/02/04 07:08:17;;;;;;;1999.90;999.90;;;;;;;10.02;100.00;102135.78;10544747;28;20052;-68
2024/02/04 07:13:19;;;;;;;1999.90;999.90;;;;;;;10.03;100.00;102123.53;10525961;28;20444;-68
2024/02/04 07:18:22;;;;;;;1999.90;999.90;;;;;;;10.00;100.00;102124.50;10544410;28;20122;-68
2024/02/04 07:23:24;;;;;;;1999.90;999.90;;;;;;;9.96;100.00;102135.13;10543512;28;20407;-68
2024/02/04 07:28:27;;;;;;;1999.90;999.90;;;;;;;10.03;100.00;102134.00;10508920;28;20403;-68
2024/02/04 07:33:29;;;;;;;1999.90;999.90;;;;;;;10.06;100.00;102127.81;10543018;28;20394;-68
2024/02/04 07:38:34;;;;;;;1999.90;999.90;;;;;;;10.04;100.00;102120.03;10543109;28;20552;-68
2024/02/04 07:43:37;;;;;;;1999.90;999.90;;;;;;;9.98;100.00;102121.06;10542540;28;20062;-68
2024/02/04 07:48:39;;;;;;;1999.90;999.90;;;;;;;10.10;100.00;102109.31;10542503;28;20380;-68
2024/02/04 07:53:41;;;;;;;1999.90;999.90;;;;;;;10.13;100.00;102122.31;10524277;28;20048;-68
2024/02/04 07:58:44;;;;;;;1999.90;999.90;;;;;;;10.04;100.00;102115.63;10542118;28;20491;-68
2024/02/04 08:03:47;;;;;;;1999.90;999.90;;;;;;;10.00;100.00;102121.03;10541841;28;20111;-68
2024/02/04 08:08:49;;;;;;;1999.90;999.90;;;;;;;10.00;100.00;102121.03;10541670;28;20059;-68
2024/02/04 08:13:53;;;;;;;1999.90;999.90;;;;;;;10.02;100.00;102106.16;10540702;28;20441;-68
2024/02/04 08:18:56;;;;;;;1999.90;999.90;;;;;;;10.04;100.00;102110.41;10542176;28;20048;-68
2024/02/04 08:23:58;;;;;;;1999.90;999.90;;;;;;;10.08;100.00;102100.69;10524092;28;20048;-68
2024/02/04 08:29:00;;;;;;;1999.90;999.90;;;;;;;9.86;100.00;102092.72;10540938;28;20051;-68
2024/02/04 08:34:03;;;;;;;1999.90;999.90;;;;;;;9.89;100.00;102100.47;10540659;28;20479;-68
2024/02/04 08:39:05;;;;;;;1999.90;999.90;;;;;;;9.72;100.00;102108.88;10541103;28;20044;-68
2024/02/04 08:44:08;;;;;;;1999.90;999.90;;;;;;;9.45;100.00;102116.69;10541097;28;20124;-68
2024/02/04 08:49:10;;;;;;;1999.90;999.90;;;;;;;9.41;100.00;102111.59;10523305;28;20052;-68
2024/02/04 08:54:13;;;;;;;1999.90;999.90;;;;;;;9.49;100.00;102123.53;10540655;28;20044;-68
2024/02/04 08:59:15;;;;;;;1999.90;999.90;;;;;;;9.53;100.00;102103.41;10540651;28;20052;-69
2024/02/04 09:04:18;;;;;;;1999.90;999.90;;;;;;;9.83;100.00;102111.13;10522621;28;20054;-69
2024/02/04 09:09:20;;;;;;;1999.90;999.90;;;;;;;9.71;100.00;102095.84;10521959;28;20478;-69
2024/02/04 09:14:23;;;;;;;1999.90;999.90;;;;;;;9.85;100.00;102091.88;10536558;28;20109;-68
2024/02/04 09:19:25;;;;;;;1999.90;999.90;;;;;;;9.92;100.00;102108.22;10502025;28;20052;-68
2024/02/04 09:36:15;;;;;;;1999.90;999.90;;;;;;;10.13;100.00;102101.38;11824482;23;20055;-68
2024/02/04 09:41:19;;;;;;;1999.90;999.90;;;;;;;10.39;100.00;102107.50;10215729;29;20055;-68
2024/02/04 09:46:22;;;;;;;1999.90;999.90;;;;;;;10.39;100.00;102108.34;10208523;29;20063;-69
2024/02/04 09:51:27;;;;;;;1999.90;999.90;;;;;;;10.55;100.00;102113.88;10224410;29;20047;-68
2024/02/04 09:56:31;;;;;;;1999.90;999.90;;;;;;;10.64;100.00;102097.00;10240494;29;20474;-68
2024/02/04 10:01:33;;;;;;;1999.90;999.90;;;;;;;10.59;100.00;102098.91;10216957;29;20047;-68
2024/02/04 10:06:38;;;;;;;1999.90;999.90;;;;;;;10.85;100.00;102110.22;10213676;29;20112;-68
2024/02/04 10:11:44;;;;;;;1999.90;999.90;;;;;;;10.64;100.00;102110.09;10219340;29;20078;-68
2024/02/04 10:16:47;;;;;;;1999.90;999.90;;;;;;;10.71;100.00;102108.94;10222536;29;20054;-68
2024/02/04 10:22:01;;;;;;;1999.90;999.90;;;;;;;10.80;100.00;102107.75;10219317;29;20135;-68
2024/02/04 10:27:04;;;;;;;1999.90;999.90;;;;;;;10.81;100.00;102109.47;10198578;29;20088;-68
2024/02/04 10:32:08;;;;;;;1999.90;999.90;;;;;;;10.93;100.00;102116.00;10181924;29;20055;-68
2024/02/04 10:37:11;;;;;;;1999.90;999.90;;;;;;;10.88;100.00;102108.31;10181770;29;20094;-68
2024/02/04 10:42:14;;;;;;;1999.90;999.90;;;;;;;11.07;100.00;102102.38;10182894;29;20137;-68
2024/02/04 10:47:18;;;;;;;1999.90;999.90;;;;;;;11.11;100.00;102103.94;10228493;29;20103;-68
2024/02/04 10:52:22;;;;;;;1999.90;999.90;;;;;;;11.07;100.00;102105.00;10221338;29;20044;-69
2024/02/04 10:57:26;;;;;;;1999.90;999.90;;;;;;;10.96;100.00;102094.91;10234507;29;20052;-70
2024/02/04 11:02:29;;;;;;;1999.90;999.90;;;;;;;10.90;100.00;102103.88;10218987;29;20051;-70
2024/02/04 11:07:36;;;;;;;1999.90;999.90;;;;;;;10.81;100.00;102109.47;10217991;29;20051;-70
2024/02/04 11:12:40;;;;;;;1999.90;999.90;;;;;;;10.62;100.00;102103.19;10218908;29;20055;-70
2024/02/04 11:18:16;;;;;;;1999.90;999.90;;;;;;;10.90;100.00;102079.44;10233431;29;20490;-70
2024/02/04 11:23:28;;;;;;;1999.90;999.90;;;;;;;10.76;100.00;102079.97;10218580;29;20059;-70
2024/02/04 11:28:31;;;;;;;1999.90;999.90;;;;;;;10.67;100.00;102080.31;10218430;29;20047;-70
2024/02/04 11:33:33;;;;;;;1999.90;999.90;;;;;;;10.73;100.00;102094.03;10217627;29;20095;-70
2024/02/04 11:38:37;;;;;;;1999.90;999.90;;;;;;;10.89;100.00;102081.22;10231896;29;20396;-70
2024/02/04 11:43:40;;;;;;;1999.90;999.90;;;;;;;10.76;100.00;102066.88;10215964;29;20130;-69
2024/02/04 11:48:42;;;;;;;1999.90;999.90;;;;;;;10.57;100.00;102075.41;10216551;29;20103;-70
2024/02/04 11:53:45;;;;;;;1999.90;999.90;;;;;;;10.71;100.00;102085.38;10217264;29;20087;-70
2024/02/04 11:58:48;;;;;;;1999.90;999.90;;;;;;;10.70;100.00;102054.00;10216570;29;20090;-70
2024/02/04 12:03:50;;;;;;;1999.90;999.90;;;;;;;10.84;100.00;102056.09;10216969;29;20051;-70
2024/02/04 12:08:53;;;;;;;1999.90;999.90;;;;;;;10.72;100.00;102046.94;10231662;29;20111;-70
2024/02/04 12:13:56;;;;;;;1999.90;999.90;;;;;;;10.82;100.00;102039.59;10216498;29;20130;-70
2024/02/04 12:18:59;;;;;;;1999.90;999.90;;;;;;;10.72;100.00;102063.50;10215789;29;20415;-67
2024/02/04 12:24:01;;;;;;;1999.90;999.90;;;;;;;10.58;100.00;102060.56;10216229;29;20131;-70
2024/02/04 12:29:03;;;;;;;1999.90;999.90;;;;;;;10.63;100.00;102055.16;10215440;29;20159;-70
2024/02/04 12:34:07;;;;;;;1999.90;999.90;;;;;;;10.80;100.00;102034.41;10214674;29;20054;-70
2024/02/04 12:39:11;;;;;;;1999.90;999.90;;;;;;;10.62;100.00;102035.09;10229762;29;20059;-70
2024/02/04 12:44:18;;;;;;;1999.90;999.90;;;;;;;10.65;100.00;102011.41;10214959;29;20048;-70
2024/02/04 12:49:22;;;;;;;1999.90;999.90;;;;;;;10.56;100.00;102029.19;10215512;29;20058;-70
2024/02/04 12:54:24;;;;;;;1999.90;999.90;;;;;;;10.60;100.00;102025.53;10214601;29;20483;-70
2024/02/04 12:59:31;;;;;;;1999.90;999.90;;;;;;;10.61;100.00;102036.88;10214428;29;20411;-70
2024/02/04 13:04:43;;;;;;;1999.90;999.90;;;;;;;10.53;100.00;102039.75;10214416;29;20134;-71
2024/02/04 13:09:46;;;;;;;1999.90;999.90;;;;;;;10.58;100.00;102034.38;10214315;29;20410;-70
2024/02/04 13:14:49;;;;;;;1999.90;999.90;;;;;;;10.72;100.00;102031.22;10229385;29;20048;-70
2024/02/04 13:19:52;;;;;;;1999.90;999.90;;;;;;;10.60;100.00;102022.91;10214116;29;20058;-70
2024/02/04 13:24:54;;;;;;;1999.90;999.90;;;;;;;10.54;100.00;102022.28;10214544;29;20070;-70
2024/02/04 13:29:56;;;;;;;1999.90;999.90;;;;;;;10.61;100.00;101997.59;10213833;29;20059;-70
2024/02/04 13:34:59;;;;;;;1999.90;999.90;;;;;;;10.48;100.00;102012.06;10214331;29;20055;-70
2024/02/04 13:40:16;;;;;;;1999.90;999.90;;;;;;;10.36;100.00;102022.06;10213497;29;20063;-70
2024/02/04 13:45:19;;;;;;;1999.90;999.90;;;;;;;10.51;100.00;102028.50;10228319;29;20472;-70
2024/02/04 13:50:21;;;;;;;1999.90;999.90;;;;;;;10.53;100.00;101995.25;10228198;29;20078;-70
2024/02/04 13:55:24;;;;;;;1999.90;999.90;;;;;;;10.65;100.00;101993.94;10213994;29;20051;-70
2024/02/04 14:00:26;;;;;;;1999.90;999.90;;;;;;;10.63;100.00;101992.28;10213390;29;20411;-70
2024/02/04 14:05:29;;;;;;;1999.90;999.90;;;;;;;10.65;100.00;101995.69;10213249;29;20056;-70
2024/02/04 14:10:31;;;;;;;1999.90;999.90;;;;;;;10.78;100.00;102004.78;10213789;29;20055;-70
2024/02/04 14:15:34;;;;;;;1999.90;999.90;;;;;;;10.69;100.00;101989.41;10233930;29;20476;-70
2024/02/04 14:20:36;;;;;;;1999.90;999.90;;;;;;;10.75;100.00;101979.56;10220882;29;20062;-70
2024/02/04 14:25:38;;;;;;;1999.90;999.90;;;;;;;10.68;100.00;101970.25;10235340;29;20055;-70
2024/02/04 14:30:41;;;;;;;1999.90;999.90;;;;;;;10.80;100.00;101989.88;10220525;29;20083;-70
2024/02/04 14:35:43;;;;;;;1999.90;999.90;;;;;;;10.70;100.00;101978.88;10220230;29;20048;-70
2024/02/04 14:40:46;;;;;;;1999.90;999.90;;;;;;;10.72;100.00;101984.91;10220818;29;20086;-70
2024/02/04 14:45:48;;;;;;;1999.90;999.90;;;;;;;10.76;100.00;101977.81;10220006;29;20058;-70
2024/02/04 14:50:51;;;;;;;1999.90;999.90;;;;;;;10.67;100.00;101965.06;10233996;29;20055;-70
2024/02/04 14:55:55;;;;;;;1999.90;999.90;;;;;;;10.81;100.00;101973.25;10219529;29;20054;-70
2024/02/04 15:00:58;;;;;;;1999.90;999.90;;;;;;;10.76;100.00;101962.09;10219641;29;20052;-70
2024/02/04 15:06:01;;;;;;;1999.90;999.90;;;;;;;10.75;100.00;101952.53;10219206;29;20095;-70
2024/02/04 15:11:03;;;;;;;1999.90;999.90;;;;;;;10.71;100.00;101967.50;10233070;29;20463;-70
2024/02/04 15:16:07;;;;;;;1999.90;999.90;;;;;;;10.71;100.00;101949.16;10218785;29;20079;-70
2024/02/04 15:21:10;;;;;;;1999.90;999.90;;;;;;;10.75;100.00;101944.66;10218677;29;20056;-70
2024/02/04 15:26:13;;;;;;;1999.90;999.90;;;;;;;10.91;100.00;101947.50;10217579;29;20102;-70
2024/02/04 15:31:18;;;;;;;1999.90;999.90;;;;;;;10.99;100.00;101945.44;10218470;29;20052;-70
2024/02/04 15:36:21;;;;;;;1999.90;999.90;;;;;;;10.89;100.00;101942.34;10217868;29;20069;-70
2024/02/04 15:41:24;;;;;;;1999.90;999.90;;;;;;;10.94;100.00;101935.16;10231949;29;20411;-70
2024/02/04 15:46:27;;;;;;;1999.90;999.90;;;;;;;10.97;100.00;101927.16;10232344;29;20054;-70
2024/02/04 15:51:30;;;;;;;1999.90;999.90;;;;;;;10.97;100.00;101918.44;10232160;29;20055;-70
2024/02/04 15:56:35;;;;;;;1999.90;999.90;;;;;;;10.99;100.00;101911.34;10216667;29;20056;-68
2024/02/04 16:01:40;;;;;;;1999.90;999.90;;;;;;;11.09;100.00;101911.84;10231106;29;20415;-70
2024/02/04 16:06:43;;;;;;;1999.90;999.90;;;;;;;11.08;100.00;101899.66;10217045;29;20048;-70
2024/02/04 16:11:53;;;;;;;1999.90;999.90;;;;;;;11.16;100.00;101876.56;10216872;29;20059;-70
2024/02/04 16:17:01;;;;;;;1999.90;999.90;;;;;;;11.08;100.00;101869.06;10231104;29;20133;-70
2024/02/04 16:22:03;;;;;;;1999.90;999.90;;;;;;;11.14;100.00;101871.41;10215784;29;20498;-70
2024/02/04 16:27:06;;;;;;;1999.90;999.90;;;;;;;11.22;100.00;101867.63;10216203;29;20055;-70
2024/02/04 16:32:11;;;;;;;1999.90;999.90;;;;;;;11.24;100.00;101873.63;10216027;29;20044;-70
2024/02/04 16:37:13;;;;;;;1999.90;999.90;;;;;;;11.20;100.00;101874.72;10229426;28;20119;-69
2024/02/04 16:42:16;;;;;;;1999.90;999.90;;;;;;;11.23;100.00;101870.19;10215742;29;20052;-70
2024/02/04 16:47:19;;;;;;;1999.90;999.90;;;;;;;11.25;100.00;101854.38;10229567;29;20060;-70
2024/02/04 16:52:21;;;;;;;1999.90;999.90;;;;;;;11.17;100.00;101856.47;10215332;29;20052;-70
2024/02/04 16:57:24;;;;;;;1999.90;999.90;;;;;;;11.13;100.00;101863.63;10215236;29;20059;-68
2024/02/04 17:02:26;;;;;;;1999.90;999.90;;;;;;;11.14;100.00;101866.16;10215235;29;20047;-68
2024/02/04 17:07:28;;;;;;;1999.90;999.90;;;;;;;11.18;100.00;101852.94;10213374;29;20060;-70
2024/02/04 17:12:31;;;;;;;1999.90;999.90;;;;;;;11.22;100.00;101847.50;10214811;29;20051;-70
2024/02/04 17:17:34;;;;;;;1999.90;999.90;;;;;;;11.40;100.00;101861.56;10214770;29;20082;-70
2024/02/04 17:22:37;;;;;;;1999.90;999.90;;;;;;;11.34;100.00;101856.59;10228700;29;20506;-70
2024/02/04 17:27:41;;;;;;;1999.90;999.90;;;;;;;11.28;100.00;101854.22;10229348;29;20055;-70
2024/02/04 17:32:47;;;;;;;1999.90;999.90;;;;;;;11.42;100.00;101851.88;10229082;29;20058;-69
2024/02/04 17:37:51;;;;;;;1999.90;999.90;;;;;;;11.38;100.00;101839.81;10213717;29;20063;-68
2024/02/04 17:42:55;;;;;;;1999.90;999.90;;;;;;;11.36;100.00;101848.66;10214844;29;20051;-68
2024/02/04 17:47:59;;;;;;;1999.90;999.90;;;;;;;11.45;100.00;101843.88;10217880;29;20048;-68
2024/02/04 17:53:01;;;;;;;1999.90;999.90;;;;;;;11.50;100.00;101846.28;10221903;29;20058;-70
2024/02/04 17:58:05;;;;;;;1999.90;999.90;;;;;;;11.46;100.00;101866.53;10221811;29;20051;-69
2024/02/04 18:03:08;;;;;;;1999.90;999.90;;;;;;;11.17;100.00;101885.31;10220991;29;20496;-68
2024/02/04 18:08:10;;;;;;;1999.90;999.90;;;;;;;11.09;100.00;101886.47;10221391;29;20130;-67
2024/02/04 18:13:15;;;;;;;1999.90;999.90;;;;;;;10.90;100.00;101898.66;10221217;29;20060;-68
2024/02/04 18:18:17;;;;;;;1999.90;999.90;;;;;;;10.96;100.00;101898.38;10221067;29;20058;-68
2024/02/04 18:23:20;;;;;;;1999.90;999.90;;;;;;;10.90;100.00;101886.41;10220885;29;20103;-68
2024/02/04 18:28:22;;;;;;;1999.90;999.90;;;;;;;10.69;100.00;101880.28;10220123;29;20075;-68
2024/02/04 18:33:25;;;;;;;1999.90;999.90;;;;;;;10.82;100.00;101875.38;10219801;29;20506;-68
2024/02/04 18:38:27;;;;;;;1999.90;999.90;;;;;;;10.86;100.00;101874.34;10219841;29;20068;-68
2024/02/04 18:43:29;;;;;;;1999.90;999.90;;;;;;;10.89;100.00;101874.22;10220280;29;20055;-68
2024/02/04 18:48:32;;;;;;;1999.90;999.90;;;;;;;10.81;100.00;101881.56;10219963;29;20082;-69
2024/02/04 18:53:35;;;;;;;1999.90;999.90;;;;;;;10.91;100.00;101879.38;10219654;29;20048;-69
2024/02/04 18:58:38;;;;;;;1999.90;999.90;;;;;;;10.85;100.00;101874.41;10219002;29;20055;-68
2024/02/04 19:03:41;;;;;;;1999.90;999.90;;;;;;;10.84;100.00;101868.31;10219364;29;20051;-69
2024/02/04 19:08:43;;;;;;;1999.90;999.90;;;;;;;10.83;100.00;101858.75;10219186;29;20056;-69
2024/02/04 19:13:46;;;;;;;1999.90;999.90;;;;;;;10.78;100.00;101864.19;10218927;29;20054;-69
2024/02/04 19:18:48;;;;;;;1999.90;999.90;;;;;;;10.83;100.00;101850.06;10233077;29;20051;-68
2024/02/04 19:23:51;;;;;;;1999.90;999.90;;;;;;;10.93;100.00;101852.22;10233396;29;20051;-69
2024/02/04 19:28:54;;;;;;;1999.90;999.90;;;;;;;10.94;100.00;101843.44;10233064;29;20103;-69
2024/02/04 19:33:56;;;;;;;1999.90;999.90;;;;;;;11.04;100.00;101837.78;10217545;29;20155;-69
2024/02/04 19:38:59;;;;;;;1999.90;999.90;;;;;;;11.01;100.00;101844.03;10217436;29;20059;-68
2024/02/04 19:44:01;;;;;;;1999.90;999.90;;;;;;;10.94;100.00;101832.09;10217855;29;20058;-69
2024/02/04 19:49:03;;;;;;;1999.90;999.90;;;;;;;10.97;100.00;101837.22;10231754;29;20460;-68
2024/02/04 19:54:06;;;;;;;1999.90;999.90;;;;;;;11.09;100.00;101838.44;10217386;29;20054;-69
2024/02/04 19:59:10;;;;;;;1999.90;999.90;;;;;;;11.10;100.00;101842.78;10216119;29;20051;-68
2024/02/04 20:04:12;;;;;;;1999.90;999.90;;;;;;;11.03;100.00;101831.72;10216615;29;20468;-68
2024/02/04 20:09:15;;;;;;;1999.90;999.90;;;;;;;11.20;100.00;101848.50;10215498;29;20055;-68
2024/02/04 20:14:18;;;;;;;1999.90;999.90;;;;;;;11.09;100.00;101831.44;10230672;29;20052;-69
2024/02/04 20:19:21;;;;;;;1999.90;999.90;;;;;;;11.26;100.00;101841.22;10216538;29;20057;-68
2024/02/04 20:24:24;;;;;;;1999.90;999.90;;;;;;;11.12;100.00;101807.72;10216343;29;20063;-68
2024/02/04 20:29:26;;;;;;;1999.90;999.90;;;;;;;11.21;100.00;101822.19;10230167;29;20583;-68
2024/02/04 20:34:29;;;;;;;1999.90;999.90;;;;;;;11.12;100.00;101828.69;10215294;29;20503;-68
2024/02/04 20:39:32;;;;;;;1999.90;999.90;;;;;;;11.09;100.00;101814.88;10214809;29;20070;-68
2024/02/04 20:44:34;;;;;;;1999.90;999.90;;;;;;;11.22;100.00;101787.19;10215057;29;20543;-69
2024/02/04 20:49:36;;;;;;;1999.90;999.90;;;;;;;11.18;100.00;101809.25;10215476;29;20052;-68
2024/02/04 20:54:39;;;;;;;1999.90;999.90;;;;;;;11.14;100.00;101805.88;10214696;29;20649;-68
2024/02/04 20:59:41;;;;;;;1999.90;999.90;;;;;;;11.13;100.00;101808.59;10229468;29;20412;-68
2024/02/04 21:04:44;;;;;;;1999.90;999.90;;;;;;;11.13;100.00;101826.94;10215106;29;20051;-68
2024/02/04 21:09:47;;;;;;;1999.90;999.90;;;;;;;11.18;100.00;101810.97;10214365;29;20052;-68
2024/02/04 21:14:50;;;;;;;1999.90;999.90;;;;;;;11.18;100.00;101819.72;10214829;29;20047;-69
2024/02/04 21:19:52;;;;;;;1999.90;999.90;;;;;;;11.32;100.00;101812.09;10228790;29;20449;-68
2024/02/04 21:24:55;;;;;;;1999.90;999.90;;;;;;;11.35;100.00;101805.88;10214424;29;20050;-68
2024/02/04 21:29:58;;;;;;;1999.90;999.90;;;;;;;11.32;100.00;101806.84;10214687;29;20110;-68
2024/02/04 21:35:02;;;;;;;1999.90;999.90;;;;;;;11.23;100.00;101806.38;10212656;29;20052;-68
2024/02/04 21:40:11;;;;;;;1999.90;999.90;;;;;;;11.31;100.00;101810.41;10213572;29;20680;-68
2024/02/04 21:45:15;;;;;;;1999.90;999.90;;;;;;;11.36;100.00;101822.44;10213632;29;20502;-68
2024/02/04 21:50:18;;;;;;;1999.90;999.90;;;;;;;11.28;100.00;101814.91;10214364;29;20130;-68
2024/02/04 21:55:20;;;;;;;1999.90;999.90;;;;;;;11.36;100.00;101818.03;10192592;23;20108;-68